Vestal, NY (13850)

8:33 AM EDT on July 02, 2015 (GMT -0400)
Vestal Fire Department Station #2 | | Change Station
CLOSE
Current Station
Personal Weather Station
Location: Vestal, NY
Elevation: 997 ft
Nearby Weather Stations

Elev 997 ft 42.03 °N, 76.01 °W | Updated 2 minutes ago

Partly Cloudy
Partly Cloudy
60.3 °F
Feels Like 60.3 °F
N
0.0
Wind Variable Wind from South
Gusts 1.0 mph

Today
High -- | Low -- °F
--% Chance of Precip.
Yesterday
High -- | Low -- °F
Precip. -- in
5:32 AM 8:43 PM
Full, 100% visible
Pressure 29.94 in
Visibility 6.0 miles
Clouds Few 2100 ft
Scattered Clouds 4200 ft
Dew Point 59 °F
Humidity 95%
Rainfall 0.00 in
Snow Depth Not available.
UV 2 out of 12
Pollen 4.70 out of 12
Air Quality Not available.
Flu Activity Not available.
METAR KBGM 021153Z 29003KT 6SM BR FEW021 SCT042 16/14 A2995 RMK AO2 SLP136 70069 T01560144 10167 20133 51011

More Conditions Fewer Conditions

Pressure 29.94 in
Visibility 6.0 miles
Clouds Few 2100 ft
Scattered Clouds 4200 ft
Dew Point 59 °F
Humidity 95%
Rainfall 0.00 in
Snow Depth Not available.
UV 2 out of 12
Pollen 4.70 out of 12
Air Quality Not available.
Flu Activity Not available.
METAR KBGM 021153Z 29003KT 6SM BR FEW021 SCT042 16/14 A2995 RMK AO2 SLP136 70069 T01560144 10167 20133 51011

More Conditions Fewer Conditions

10-Day Weather Forecast

×

Almanac

Astronomy

Jul. 02, 2015 Rise Set
Actual Time
Civil Twilight
Nautical Twilight
Astronomical Twilight
Moon
Length of Visible Light
Length of Day
Tomorrow will be .
, % of the Moon is Illuminated

Today's Extremes

State Highs State Lows

Community

WunderPhotos

Upload Photos

1,834,455 photos uploaded!

WunderBlogs® & News

Nearby

Air Quality

  Air Quality AQ Index Pollutant
Not available.

Snow Depth

Station Depth Elevation

Earthquake Activity

City Distance Mag. Time & Date
Minimum magnitude displayed is 2.5.

Coastal Water Temperatures

Place Temperature

Stations

Nearby Weather Stations

Station Location Temp. Windchill Dew Point Humidity Wind Precip. Elev Updated Type